Time;durP1;ratioP1;P1;durP2;ratioP2;P2;SDS_P1;SDS_P2;PMS_P1;PMS_P2;Temp;Humidity;BMP_temperature;BMP_pressure;BME280_temperature;BME280_humidity;BME280_pressure;Samples;Min_cycle;Max_cycle;Signal;HPM_P1;HPM_P2
2022/04/02 00:01:41;;;;;;;3.10;2.80;;;;;;;;;;5052176;28;20504;-56
2022/04/02 00:04:08;;;;;;;3.47;2.70;;;;;;;;;;5066964;28;20526;-56
2022/04/02 00:06:34;;;;;;;2.83;2.63;;;;;;;;;;5060846;28;20434;-56
2022/04/02 00:09:00;;;;;;;5.63;3.00;;;;;;;;;;5051672;28;20462;-56
2022/04/02 00:11:26;;;;;;;2.73;2.53;;;;;;;;;;5057862;28;20462;-56
2022/04/02 00:13:52;;;;;;;5.10;2.87;;;;;;;;;;5068254;28;21833;-56
2022/04/02 00:16:18;;;;;;;3.97;3.13;;;;;;;;;;5063401;28;20432;-56
2022/04/02 00:18:45;;;;;;;2.93;2.53;;;;;;;;;;5057568;28;20427;-55
2022/04/02 00:21:11;;;;;;;4.13;2.60;;;;;;;;;;5067057;28;20435;-56
2022/04/02 00:23:40;;;;;;;3.20;2.53;;;;;;;;;;5066067;28;20893;-56
2022/04/02 00:26:11;;;;;;;3.00;2.70;;;;;;;;;;5069312;28;20850;-56
2022/04/02 00:28:38;;;;;;;3.27;2.63;;;;;;;;;;5069420;28;20434;-56
2022/04/02 00:31:05;;;;;;;2.80;2.30;;;;;;;;;;5052063;28;20438;-56
2022/04/02 00:33:31;;;;;;;2.67;2.47;;;;;;;;;;5070262;28;20461;-56
2022/04/02 00:35:57;;;;;;;2.87;2.60;;;;;;;;;;5050008;28;20948;-57
2022/04/02 00:38:23;;;;;;;2.67;2.30;;;;;;;;;;5066742;28;20422;-57
2022/04/02 00:40:49;;;;;;;3.77;2.63;;;;;;;;;;5067718;28;20570;-56
2022/04/02 00:43:28;;;;;;;2.90;2.70;;;;;;;;;;5058592;28;20438;-56
2022/04/02 00:45:55;;;;;;;2.90;2.33;;;;;;;;;;5070993;28;20429;-55
2022/04/02 00:48:22;;;;;;;3.00;2.30;;;;;;;;;;5082112;28;20447;-55
2022/04/02 00:50:52;;;;;;;3.13;2.40;;;;;;;;;;5072029;28;20437;-56
2022/04/02 00:53:18;;;;;;;2.93;2.63;;;;;;;;;;5049665;28;20991;-57
2022/04/02 00:55:45;;;;;;;1.87;1.77;;;;;;;;;;5079212;28;20434;-55
2022/04/02 00:58:12;;;;;;;2.90;2.63;;;;;;;;;;5046979;28;20463;-56
2022/04/02 01:00:41;;;;;;;2.73;2.43;;;;;;;;;;5070160;28;20445;-56
2022/04/02 01:03:07;;;;;;;2.60;2.20;;;;;;;;;;5077389;28;20528;-55
2022/04/02 01:05:35;;;;;;;7.20;2.57;;;;;;;;;;5075357;28;20437;-56
2022/04/02 01:08:05;;;;;;;2.53;2.33;;;;;;;;;;5066467;28;20427;-56
2022/04/02 01:10:32;;;;;;;4.40;2.40;;;;;;;;;;5051475;28;20854;-55
2022/04/02 01:12:59;;;;;;;3.53;2.90;;;;;;;;;;5046077;28;20211;-57
2022/04/02 01:15:25;;;;;;;3.20;2.30;;;;;;;;;;5073584;28;20450;-56
2022/04/02 01:17:52;;;;;;;2.70;2.50;;;;;;;;;;5046369;28;20426;-57
2022/04/02 01:20:18;;;;;;;3.93;2.50;;;;;;;;;;5066008;28;20927;-56
2022/04/02 01:22:45;;;;;;;4.07;3.10;;;;;;;;;;5059805;28;20794;-56
2022/04/02 01:25:11;;;;;;;3.30;2.40;;;;;;;;;;5076000;28;20913;-56
2022/04/02 01:27:37;;;;;;;2.63;2.33;;;;;;;;;;5067007;28;20529;-57
2022/04/02 01:30:03;;;;;;;3.13;2.33;;;;;;;;;;5056368;28;20224;-57
2022/04/02 01:32:29;;;;;;;2.90;2.00;;;;;;;;;;5079274;28;20462;-56
2022/04/02 01:34:56;;;;;;;2.30;1.80;;;;;;;;;;5066854;28;20796;-56
2022/04/02 01:37:22;;;;;;;2.13;2.00;;;;;;;;;;5061610;28;20184;-57
2022/04/02 01:39:49;;;;;;;2.47;2.10;;;;;;;;;;5056680;28;20469;-57
2022/04/02 01:42:17;;;;;;;2.20;1.60;;;;;;;;;;5065119;28;20484;-54
2022/04/02 01:44:49;;;;;;;2.20;2.00;;;;;;;;;;5071707;28;20432;-58
2022/04/02 01:47:15;;;;;;;2.30;2.10;;;;;;;;;;5069694;28;20427;-54
2022/04/02 01:49:41;;;;;;;2.87;2.17;;;;;;;;;;5071648;28;20462;-57
2022/04/02 01:52:08;;;;;;;2.40;2.20;;;;;;;;;;5078546;28;20927;-56
2022/04/02 01:54:34;;;;;;;2.70;2.00;;;;;;;;;;5083559;28;20437;-55
2022/04/02 01:57:01;;;;;;;3.00;2.23;;;;;;;;;;5070529;28;20452;-56
2022/04/02 01:59:27;;;;;;;3.00;2.20;;;;;;;;;;5052539;28;20606;-54
2022/04/02 02:01:53;;;;;;;2.33;2.10;;;;;;;;;;5078279;28;20848;-55
2022/04/02 02:04:19;;;;;;;2.63;2.20;;;;;;;;;;5075397;28;20434;-57
2022/04/02 02:06:45;;;;;;;2.40;2.20;;;;;;;;;;5061316;28;20435;-56
2022/04/02 02:09:12;;;;;;;2.27;2.07;;;;;;;;;;5058540;28;20443;-56
2022/04/02 02:11:40;;;;;;;4.30;2.50;;;;;;;;;;5060652;28;20467;-58
2022/04/02 02:14:06;;;;;;;2.87;2.30;;;;;;;;;;5053454;28;20219;-55
2022/04/02 02:16:32;;;;;;;2.77;2.57;;;;;;;;;;5076322;28;20441;-54
2022/04/02 02:18:58;;;;;;;2.37;2.17;;;;;;;;;;5045451;28;20440;-56
2022/04/02 02:21:24;;;;;;;3.60;2.53;;;;;;;;;;5052779;28;20442;-55
2022/04/02 02:23:50;;;;;;;1.80;1.60;;;;;;;;;;5071563;28;20442;-55
2022/04/02 02:26:17;;;;;;;2.10;1.90;;;;;;;;;;5071597;28;20921;-54
2022/04/02 02:28:43;;;;;;;2.77;2.13;;;;;;;;;;5074479;28;21012;-54
2022/04/02 02:31:09;;;;;;;2.33;1.80;;;;;;;;;;5080225;28;20443;-56
2022/04/02 02:36:20;;;;;;;2.87;1.97;;;;;;;;;;5058891;28;20263;-56
2022/04/02 02:38:46;;;;;;;2.23;1.80;;;;;;;;;;5073440;28;20430;-55
2022/04/02 02:41:13;;;;;;;2.43;1.77;;;;;;;;;;5075506;28;20912;-55
2022/04/02 02:43:39;;;;;;;2.97;1.97;;;;;;;;;;5060619;28;20442;-56
2022/04/02 02:46:10;;;;;;;2.97;1.80;;;;;;;;;;5078598;28;21012;-55
2022/04/02 02:48:36;;;;;;;3.80;2.03;;;;;;;;;;5072202;28;20445;-55
2022/04/02 02:51:02;;;;;;;3.13;2.40;;;;;;;;;;5059208;28;20437;-55
2022/04/02 02:53:34;;;;;;;3.27;2.00;;;;;;;;;;5071828;28;20457;-55
2022/04/02 02:56:00;;;;;;;2.67;2.07;;;;;;;;;;5067062;28;20758;-56
2022/04/02 02:58:26;;;;;;;2.60;1.90;;;;;;;;;;5080927;28;20913;-55
2022/04/02 03:00:52;;;;;;;2.30;2.10;;;;;;;;;;5074139;28;20185;-57
2022/04/02 03:03:18;;;;;;;3.33;2.50;;;;;;;;;;5079328;28;20525;-56
2022/04/02 03:05:45;;;;;;;2.73;1.87;;;;;;;;;;5071391;28;20512;-56
2022/04/02 03:08:12;;;;;;;2.07;1.93;;;;;;;;;;5072667;28;20461;-55
2022/04/02 03:10:38;;;;;;;3.00;1.97;;;;;;;;;;5055909;28;20495;-56
2022/04/02 03:13:06;;;;;;;2.17;1.80;;;;;;;;;;5069983;28;20459;-55
2022/04/02 03:15:32;;;;;;;3.63;1.87;;;;;;;;;;5060822;28;20430;-56
2022/04/02 03:18:02;;;;;;;3.33;2.00;;;;;;;;;;5055091;28;20419;-57
2022/04/02 03:20:28;;;;;;;2.77;1.90;;;;;;;;;;5087576;28;20402;-54
2022/04/02 03:22:55;;;;;;;4.43;2.67;;;;;;;;;;5068714;28;20812;-56
2022/04/02 03:25:21;;;;;;;1.90;1.70;;;;;;;;;;5049554;28;20477;-56
2022/04/02 03:27:48;;;;;;;2.30;1.67;;;;;;;;;;5050825;28;20427;-56
2022/04/02 03:30:15;;;;;;;3.00;1.80;;;;;;;;;;5044487;28;20431;-55
2022/04/02 03:32:42;;;;;;;2.43;1.90;;;;;;;;;;5061709;28;20464;-56
2022/04/02 03:35:08;;;;;;;2.40;1.90;;;;;;;;;;5075706;28;20442;-55
2022/04/02 03:37:38;;;;;;;2.00;1.90;;;;;;;;;;5052344;28;20619;-55
2022/04/02 03:40:07;;;;;;;2.50;1.90;;;;;;;;;;5052505;28;20430;-55
2022/04/02 03:42:34;;;;;;;2.57;1.70;;;;;;;;;;5048263;28;20549;-56
2022/04/02 03:45:00;;;;;;;2.87;1.90;;;;;;;;;;5046301;28;20470;-55
2022/04/02 03:47:26;;;;;;;2.30;1.80;;;;;;;;;;5081693;28;20453;-56
2022/04/02 03:49:52;;;;;;;2.53;2.27;;;;;;;;;;5052439;28;20776;-55
2022/04/02 03:52:21;;;;;;;1.90;1.67;;;;;;;;;;5053328;28;20440;-55
2022/04/02 03:54:47;;;;;;;3.00;1.87;;;;;;;;;;5080756;28;20952;-56
2022/04/02 03:57:17;;;;;;;2.43;1.80;;;;;;;;;;5068372;28;20964;-56
2022/04/02 03:59:44;;;;;;;6.03;2.20;;;;;;;;;;5050102;28;20437;-55
2022/04/02 04:02:13;;;;;;;2.80;2.60;;;;;;;;;;5060003;28;20423;-55
2022/04/02 04:04:42;;;;;;;2.23;2.00;;;;;;;;;;5072432;28;20434;-55
2022/04/02 04:07:09;;;;;;;2.63;2.43;;;;;;;;;;5054881;28;20807;-56
2022/04/02 04:09:40;;;;;;;2.87;1.97;;;;;;;;;;5053348;28;20480;-55
2022/04/02 04:12:07;;;;;;;1.90;1.80;;;;;;;;;;5046942;28;20440;-55
2022/04/02 04:14:35;;;;;;;2.10;1.70;;;;;;;;;;5050628;28;20450;-55
2022/04/02 04:17:01;;;;;;;2.17;1.90;;;;;;;;;;5052551;28;20435;-55
2022/04/02 04:19:27;;;;;;;2.97;2.13;;;;;;;;;;5009016;28;20467;-55
2022/04/02 04:21:54;;;;;;;1.80;1.70;;;;;;;;;;5045533;28;20939;-55
2022/04/02 04:24:21;;;;;;;2.10;1.73;;;;;;;;;;5045572;28;20883;-57
2022/04/02 04:26:47;;;;;;;1.70;1.60;;;;;;;;;;5032860;28;20434;-55
2022/04/02 04:29:13;;;;;;;4.50;2.37;;;;;;;;;;5035668;28;20428;-56
2022/04/02 04:31:39;;;;;;;3.27;1.90;;;;;;;;;;5034307;28;20416;-55
2022/04/02 04:34:08;;;;;;;2.70;1.87;;;;;;;;;;5019783;28;20522;-55
2022/04/02 04:36:35;;;;;;;1.60;1.50;;;;;;;;;;5028578;28;20430;-55
2022/04/02 04:39:01;;;;;;;2.60;1.87;;;;;;;;;;5054876;28;20488;-55
2022/04/02 04:41:27;;;;;;;2.77;1.67;;;;;;;;;;5036661;28;20499;-55
2022/04/02 04:43:53;;;;;;;1.80;1.70;;;;;;;;;;5041002;28;20440;-54
2022/04/02 04:46:20;;;;;;;2.97;2.20;;;;;;;;;;5042836;28;20435;-55
2022/04/02 04:48:46;;;;;;;2.73;1.80;;;;;;;;;;5027023;28;21017;-54
2022/04/02 04:51:13;;;;;;;2.70;1.90;;;;;;;;;;5029181;28;20506;-55
2022/04/02 04:53:40;;;;;;;2.30;2.10;;;;;;;;;;5018645;28;20460;-55
2022/04/02 04:56:06;;;;;;;3.03;1.80;;;;;;;;;;5027820;28;20549;-55
2022/04/02 04:58:32;;;;;;;1.90;1.70;;;;;;;;;;5040060;28;20954;-55
2022/04/02 05:00:59;;;;;;;2.27;2.03;;;;;;;;;;5028753;28;20952;-56
2022/04/02 05:03:26;;;;;;;2.10;1.90;;;;;;;;;;5046522;28;20522;-54
2022/04/02 05:05:59;;;;;;;2.17;1.97;;;;;;;;;;5031294;28;20436;-55
2022/04/02 05:08:25;;;;;;;1.87;1.50;;;;;;;;;;5034758;28;20419;-54
2022/04/02 05:10:52;;;;;;;2.27;2.03;;;;;;;;;;5045996;28;20947;-55
2022/04/02 05:13:18;;;;;;;2.37;2.17;;;;;;;;;;5054581;28;20468;-56
2022/04/02 05:15:45;;;;;;;2.93;2.23;;;;;;;;;;5071859;28;20913;-55
2022/04/02 05:18:13;;;;;;;2.77;1.70;;;;;;;;;;5068287;28;20443;-54
2022/04/02 05:20:39;;;;;;;2.30;1.90;;;;;;;;;;5076642;28;20925;-55
2022/04/02 05:23:06;;;;;;;1.57;1.47;;;;;;;;;;5074239;28;20433;-56
2022/04/02 05:25:35;;;;;;;2.20;1.90;;;;;;;;;;5072703;28;20834;-55
2022/04/02 05:28:05;;;;;;;2.97;2.17;;;;;;;;;;5069885;28;20509;-55
2022/04/02 05:30:34;;;;;;;1.80;1.70;;;;;;;;;;5060672;28;20431;-55
2022/04/02 05:33:00;;;;;;;3.30;1.87;;;;;;;;;;5055218;28;20876;-55
2022/04/02 05:35:26;;;;;;;1.90;1.63;;;;;;;;;;5061381;28;20887;-54
2022/04/02 05:37:52;;;;;;;2.70;1.93;;;;;;;;;;5061112;28;20427;-56
2022/04/02 05:40:18;;;;;;;2.33;1.53;;;;;;;;;;5069223;28;20423;-55
2022/04/02 05:42:48;;;;;;;2.23;1.90;;;;;;;;;;5056484;28;20470;-56
2022/04/02 05:45:15;;;;;;;2.30;1.67;;;;;;;;;;5061526;28;20422;-56
2022/04/02 05:47:53;;;;;;;2.33;1.90;;;;;;;;;;5060067;28;20418;-55
2022/04/02 05:50:21;;;;;;;2.17;1.97;;;;;;;;;;5078824;28;20432;-55
2022/04/02 05:52:49;;;;;;;1.87;1.70;;;;;;;;;;5070828;28;20466;-54
2022/04/02 05:55:15;;;;;;;2.73;1.87;;;;;;;;;;5063358;28;20505;-55
2022/04/02 05:57:41;;;;;;;2.90;1.80;;;;;;;;;;5060277;28;20547;-54
2022/04/02 06:00:09;;;;;;;2.40;2.20;;;;;;;;;;5059620;28;20525;-54
2022/04/02 06:02:36;;;;;;;2.80;2.00;;;;;;;;;;5058677;28;20443;-54
2022/04/02 06:05:03;;;;;;;2.07;1.87;;;;;;;;;;5057430;28;20953;-54
2022/04/02 06:07:29;;;;;;;2.23;1.50;;;;;;;;;;5042783;28;20833;-55
2022/04/02 06:09:55;;;;;;;3.80;2.03;;;;;;;;;;5043688;28;20463;-55
2022/04/02 06:12:21;;;;;;;2.10;1.90;;;;;;;;;;5058462;28;20523;-54
2022/04/02 06:14:47;;;;;;;2.00;1.80;;;;;;;;;;5067847;28;20517;-54
2022/04/02 06:17:13;;;;;;;3.40;2.13;;;;;;;;;;5067171;28;20966;-54
2022/04/02 06:19:39;;;;;;;2.30;2.10;;;;;;;;;;5066031;28;20180;-55
2022/04/02 06:22:06;;;;;;;2.63;2.20;;;;;;;;;;5062640;28;20907;-54
2022/04/02 06:24:33;;;;;;;3.47;2.00;;;;;;;;;;5057900;28;21348;-55
2022/04/02 06:26:59;;;;;;;2.37;1.97;;;;;;;;;;5059714;28;20442;-56
2022/04/02 06:29:26;;;;;;;2.57;1.90;;;;;;;;;;5054320;28;20515;-54
2022/04/02 06:31:52;;;;;;;3.03;1.93;;;;;;;;;;5058761;28;20445;-55
2022/04/02 06:34:18;;;;;;;1.90;1.67;;;;;;;;;;5056973;28;20251;-55
2022/04/02 06:36:44;;;;;;;1.93;1.70;;;;;;;;;;5069446;28;20945;-55
2022/04/02 06:39:12;;;;;;;2.20;2.00;;;;;;;;;;5057840;28;20416;-55
2022/04/02 06:41:38;;;;;;;2.57;1.80;;;;;;;;;;5044652;28;20523;-56
2022/04/02 06:44:07;;;;;;;2.00;1.67;;;;;;;;;;5045191;28;20446;-55
2022/04/02 06:46:34;;;;;;;2.60;1.93;;;;;;;;;;5061980;28;20431;-55
2022/04/02 06:49:00;;;;;;;3.00;2.00;;;;;;;;;;5058551;28;20454;-54
2022/04/02 06:51:27;;;;;;;2.80;1.90;;;;;;;;;;5042697;28;20424;-54
2022/04/02 06:53:53;;;;;;;4.13;2.43;;;;;;;;;;5055075;28;20463;-55
2022/04/02 06:56:19;;;;;;;2.10;1.83;;;;;;;;;;5031969;28;20769;-55
2022/04/02 06:58:46;;;;;;;3.23;2.10;;;;;;;;;;5064531;28;20458;-54
2022/04/02 07:01:12;;;;;;;2.77;2.20;;;;;;;;;;5036175;28;20704;-54
2022/04/02 07:03:38;;;;;;;2.50;1.90;;;;;;;;;;5045055;28;20514;-54
2022/04/02 07:06:04;;;;;;;3.33;1.83;;;;;;;;;;5046328;28;21089;-56
2022/04/02 07:08:30;;;;;;;3.20;2.13;;;;;;;;;;5045543;28;20501;-54
2022/04/02 07:10:57;;;;;;;3.20;2.03;;;;;;;;;;5068522;28;20469;-54
2022/04/02 07:13:26;;;;;;;2.67;1.90;;;;;;;;;;5067988;28;20470;-54
2022/04/02 07:15:52;;;;;;;3.13;2.07;;;;;;;;;;5067694;28;20487;-56
2022/04/02 07:18:18;;;;;;;2.00;1.80;;;;;;;;;;5057955;28;20425;-54
2022/04/02 07:20:44;;;;;;;2.80;2.20;;;;;;;;;;5060297;28;20426;-55
2022/04/02 07:23:10;;;;;;;3.83;1.77;;;;;;;;;;5057731;28;20961;-55
2022/04/02 07:25:40;;;;;;;2.70;1.97;;;;;;;;;;5045088;28;20173;-54
2022/04/02 07:28:07;;;;;;;2.17;1.93;;;;;;;;;;5058656;28;20446;-54
2022/04/02 07:30:34;;;;;;;2.93;2.30;;;;;;;;;;5070389;28;20497;-54
2022/04/02 07:33:00;;;;;;;2.97;2.50;;;;;;;;;;5064254;28;21067;-55
2022/04/02 07:35:28;;;;;;;3.37;2.37;;;;;;;;;;5068753;28;20466;-53
2022/04/02 07:38:03;;;;;;;5.03;2.50;;;;;;;;;;5046995;28;20419;-54
2022/04/02 07:40:30;;;;;;;1.77;1.67;;;;;;;;;;5066694;28;20450;-54
2022/04/02 07:43:15;;;;;;;2.47;2.07;;;;;;;;;;5060792;28;20527;-55
2022/04/02 07:45:43;;;;;;;2.83;1.97;;;;;;;;;;5068601;28;20443;-54
2022/04/02 07:48:10;;;;;;;3.23;2.07;;;;;;;;;;5055127;28;20443;-54
2022/04/02 07:50:36;;;;;;;3.97;2.00;;;;;;;;;;5077059;28;20441;-55
2022/04/02 07:53:06;;;;;;;2.97;1.90;;;;;;;;;;5053285;28;20503;-54
2022/04/02 07:55:32;;;;;;;4.47;2.30;;;;;;;;;;5067641;28;20427;-56
2022/04/02 07:58:02;;;;;;;6.53;2.97;;;;;;;;;;5067763;28;20439;-54
2022/04/02 08:00:28;;;;;;;5.43;2.90;;;;;;;;;;5069108;28;20441;-54
2022/04/02 08:02:54;;;;;;;6.73;2.47;;;;;;;;;;5073038;28;20442;-55
2022/04/02 08:05:21;;;;;;;2.17;1.83;;;;;;;;;;5055244;28;20449;-56
2022/04/02 08:07:54;;;;;;;4.20;2.23;;;;;;;;;;5055254;28;20558;-54
2022/04/02 08:10:23;;;;;;;2.60;2.20;;;;;;;;;;5046854;28;20859;-53
2022/04/02 08:12:49;;;;;;;5.80;2.10;;;;;;;;;;5064906;28;20279;-53
2022/04/02 08:15:16;;;;;;;2.70;2.00;;;;;;;;;;5066922;28;21051;-53
2022/04/02 08:17:43;;;;;;;2.10;1.87;;;;;;;;;;5065159;28;20422;-53
2022/04/02 08:20:10;;;;;;;3.33;2.20;;;;;;;;;;5068667;28;20497;-53
2022/04/02 08:22:36;;;;;;;2.17;1.97;;;;;;;;;;5066938;28;20426;-55
2022/04/02 08:25:03;;;;;;;2.97;2.53;;;;;;;;;;5067834;28;20434;-54
2022/04/02 08:27:55;;;;;;;3.50;2.33;;;;;;;;;;5051375;28;20419;-53
2022/04/02 08:30:29;;;;;;;4.17;2.23;;;;;;;;;;5027571;28;20542;-54
2022/04/02 08:33:01;;;;;;;2.40;2.00;;;;;;;;;;5059254;28;20813;-55
2022/04/02 08:35:32;;;;;;;2.67;2.20;;;;;;;;;;5070090;28;20451;-54
2022/04/02 08:38:04;;;;;;;5.10;2.57;;;;;;;;;;5045530;28;20492;-54
2022/04/02 08:40:33;;;;;;;3.30;2.00;;;;;;;;;;5065238;28;20180;-55
2022/04/02 08:43:05;;;;;;;3.37;2.10;;;;;;;;;;5060700;28;20835;-54
2022/04/02 08:45:34;;;;;;;2.23;2.03;;;;;;;;;;5066669;28;20454;-55
2022/04/02 08:48:19;;;;;;;2.50;1.83;;;;;;;;;;5065399;28;20188;-55
2022/04/02 08:50:50;;;;;;;2.23;1.83;;;;;;;;;;5060402;28;20432;-55
2022/04/02 08:53:20;;;;;;;3.10;2.13;;;;;;;;;;5053676;28;21298;-51
2022/04/02 08:56:03;;;;;;;4.70;2.17;;;;;;;;;;5050913;28;20446;-54
2022/04/02 08:58:41;;;;;;;2.70;2.07;;;;;;;;;;5044140;28;21080;-54
2022/04/02 09:01:08;;;;;;;2.67;1.97;;;;;;;;;;5069674;28;20524;-55
2022/04/02 09:04:00;;;;;;;3.50;1.90;;;;;;;;;;5070876;28;20438;-54
2022/04/02 09:06:45;;;;;;;2.30;2.10;;;;;;;;;;5068209;28;20411;-55
2022/04/02 09:09:26;;;;;;;2.20;2.00;;;;;;;;;;5058179;28;20419;-54
2022/04/02 09:12:00;;;;;;;2.87;2.10;;;;;;;;;;5059547;28;20587;-54
2022/04/02 09:14:30;;;;;;;2.17;1.97;;;;;;;;;;5076908;28;20566;-54
2022/04/02 09:17:16;;;;;;;3.33;2.40;;;;;;;;;;5071385;28;20517;-55
2022/04/02 09:20:00;;;;;;;7.97;2.70;;;;;;;;;;5053197;28;20505;-55
2022/04/02 09:22:32;;;;;;;2.30;2.10;;;;;;;;;;5068081;28;20430;-54
2022/04/02 09:25:00;;;;;;;2.63;2.30;;;;;;;;;;5067700;28;20925;-54
2022/04/02 09:27:26;;;;;;;3.03;2.00;;;;;;;;;;5064965;28;20419;-54
2022/04/02 09:30:02;;;;;;;2.60;2.00;;;;;;;;;;5055002;28;20435;-54
2022/04/02 09:32:43;;;;;;;3.27;2.47;;;;;;;;;;5047361;28;20204;-53
2022/04/02 09:35:31;;;;;;;2.67;2.47;;;;;;;;;;5063538;28;20926;-54
2022/04/02 09:38:16;;;;;;;3.97;2.10;;;;;;;;;;5037902;28;20438;-54
2022/04/02 09:40:48;;;;;;;2.93;2.23;;;;;;;;;;5062090;28;20988;-55
2022/04/02 09:43:24;;;;;;;2.53;2.13;;;;;;;;;;5059702;28;20891;-54
2022/04/02 09:46:10;;;;;;;3.33;2.57;;;;;;;;;;5054257;28;20388;-54
2022/04/02 09:49:00;;;;;;;2.63;2.43;;;;;;;;;;5066727;28;20457;-55
2022/04/02 09:51:34;;;;;;;2.77;2.53;;;;;;;;;;5015000;28;20443;-53
2022/04/02 09:54:05;;;;;;;3.13;2.60;;;;;;;;;;5063369;28;20465;-54
2022/04/02 09:56:35;;;;;;;4.70;2.97;;;;;;;;;;5064773;28;20649;-54
2022/04/02 09:59:01;;;;;;;2.60;2.40;;;;;;;;;;5068678;28;20604;-55
2022/04/02 10:01:31;;;;;;;2.90;2.60;;;;;;;;;;5058103;28;20466;-55
2022/04/02 10:04:05;;;;;;;3.80;2.53;;;;;;;;;;5070864;28;20274;-54
2022/04/02 10:06:41;;;;;;;3.23;2.93;;;;;;;;;;5070192;28;20422;-54
2022/04/02 10:09:08;;;;;;;3.33;3.03;;;;;;;;;;5078443;28;20486;-54
2022/04/02 10:11:39;;;;;;;3.03;2.30;;;;;;;;;;5067177;28;20462;-54
2022/04/02 10:14:06;;;;;;;3.67;2.70;;;;;;;;;;5063404;28;20618;-53
2022/04/02 10:16:32;;;;;;;3.97;2.80;;;;;;;;;;5067045;28;20435;-55
2022/04/02 10:19:06;;;;;;;3.27;2.97;;;;;;;;;;5067374;28;20236;-54
2022/04/02 10:21:35;;;;;;;3.47;3.00;;;;;;;;;;5068049;28;20772;-56
2022/04/02 10:24:12;;;;;;;4.03;3.33;;;;;;;;;;5054171;28;20275;-56
2022/04/02 10:26:39;;;;;;;3.57;2.97;;;;;;;;;;5072668;28;20207;-55
2022/04/02 10:29:11;;;;;;;3.90;3.50;;;;;;;;;;5063841;28;20718;-53
2022/04/02 10:31:40;;;;;;;5.27;3.30;;;;;;;;;;5069809;28;20196;-56
2022/04/02 10:34:09;;;;;;;5.30;3.70;;;;;;;;;;5061503;28;20256;-54
2022/04/02 10:36:39;;;;;;;5.47;3.17;;;;;;;;;;5050877;28;20260;-53
2022/04/02 10:39:06;;;;;;;6.23;3.67;;;;;;;;;;5056567;28;20556;-54
2022/04/02 10:41:32;;;;;;;4.27;3.67;;;;;;;;;;5068220;28;20714;-55
2022/04/02 10:44:00;;;;;;;5.13;3.30;;;;;;;;;;5070167;28;20180;-54
2022/04/02 10:46:26;;;;;;;3.97;3.50;;;;;;;;;;5054442;28;20193;-54
2022/04/02 10:49:09;;;;;;;4.50;3.40;;;;;;;;;;5063501;28;20238;-57
2022/04/02 10:51:38;;;;;;;4.53;3.70;;;;;;;;;;5068188;28;20185;-55
2022/04/02 10:54:10;;;;;;;3.63;3.33;;;;;;;;;;5044874;28;20204;-57
2022/04/02 10:56:42;;;;;;;3.80;3.40;;;;;;;;;;5066671;28;20953;-56
2022/04/02 10:59:11;;;;;;;5.23;3.23;;;;;;;;;;5061673;28;20188;-57
2022/04/02 11:01:40;;;;;;;5.70;3.30;;;;;;;;;;5068056;28;20196;-57
2022/04/02 11:04:17;;;;;;;8.53;3.80;;;;;;;;;;5049652;28;20212;-54
2022/04/02 11:06:53;;;;;;;4.43;3.30;;;;;;;;;;5052932;28;20246;-56
2022/04/02 11:09:27;;;;;;;4.17;3.47;;;;;;;;;;5067477;28;20220;-56
2022/04/02 11:11:53;;;;;;;3.97;3.37;;;;;;;;;;5068480;28;20301;-54
2022/04/02 11:14:23;;;;;;;5.17;3.27;;;;;;;;;;5068321;28;20257;-53
2022/04/02 11:16:49;;;;;;;3.83;3.47;;;;;;;;;;5067170;28;20180;-53
2022/04/02 11:22:11;;;;;;;5.47;3.33;;;;;;;;;;5068605;28;20607;-53
2022/04/02 11:24:50;;;;;;;4.77;3.30;;;;;;;;;;5057408;28;20937;-53
2022/04/02 11:27:20;;;;;;;4.47;3.80;;;;;;;;;;5065613;28;20939;-54
2022/04/02 11:29:52;;;;;;;3.80;3.10;;;;;;;;;;5069091;28;20192;-55
2022/04/02 11:32:25;;;;;;;5.17;3.50;;;;;;;;;;5062454;28;20243;-55
2022/04/02 11:34:55;;;;;;;4.47;2.60;;;;;;;;;;5084524;28;20531;-54
2022/04/02 11:37:29;;;;;;;3.80;3.00;;;;;;;;;;5065709;28;20176;-57
2022/04/02 11:39:58;;;;;;;3.70;2.90;;;;;;;;;;5067513;28;20211;-53
2022/04/02 11:42:25;;;;;;;2.53;2.27;;;;;;;;;;5067915;28;20221;-54
2022/04/02 11:44:55;;;;;;;3.57;3.00;;;;;;;;;;5079278;28;20176;-54
2022/04/02 11:47:28;;;;;;;3.00;2.60;;;;;;;;;;5067457;28;20216;-53
2022/04/02 11:49:55;;;;;;;3.80;2.63;;;;;;;;;;5067868;28;20227;-54
2022/04/02 11:52:21;;;;;;;4.57;3.27;;;;;;;;;;5062493;28;20181;-53
2022/04/02 11:54:50;;;;;;;2.80;2.60;;;;;;;;;;5062757;28;20614;-53
2022/04/02 11:57:18;;;;;;;3.33;3.03;;;;;;;;;;5075423;28;20199;-53
2022/04/02 11:59:50;;;;;;;3.77;3.47;;;;;;;;;;5067720;28;20192;-55
2022/04/02 12:02:52;;;;;;;3.50;3.03;;;;;;;;;;5071925;28;20230;-54
2022/04/02 12:05:20;;;;;;;2.97;2.57;;;;;;;;;;4988539;28;20689;-54
2022/04/02 12:07:50;;;;;;;3.20;2.50;;;;;;;;;;5062998;28;20563;-54
2022/04/02 12:10:17;;;;;;;3.53;2.90;;;;;;;;;;5067556;28;20281;-54
2022/04/02 12:12:48;;;;;;;4.80;2.60;;;;;;;;;;5059413;28;20786;-54
2022/04/02 12:15:15;;;;;;;3.17;2.87;;;;;;;;;;5053001;28;20228;-54
2022/04/02 12:17:45;;;;;;;3.00;2.73;;;;;;;;;;5083186;28;20172;-54
2022/04/02 12:20:12;;;;;;;5.90;3.73;;;;;;;;;;5067354;28;20223;-55
2022/04/02 12:22:44;;;;;;;8.20;4.30;;;;;;;;;;5048739;28;20172;-54
2022/04/02 12:25:20;;;;;;;3.47;3.13;;;;;;;;;;5071847;28;20184;-55
2022/04/02 12:27:50;;;;;;;3.67;3.27;;;;;;;;;;5049069;28;20176;-54
2022/04/02 12:30:21;;;;;;;3.10;2.80;;;;;;;;;;5050200;28;20179;-54
2022/04/02 12:32:47;;;;;;;3.90;3.50;;;;;;;;;;5075262;28;20721;-54
2022/04/02 12:35:27;;;;;;;3.60;3.00;;;;;;;;;;5049781;28;20192;-53
2022/04/02 12:37:57;;;;;;;3.23;2.93;;;;;;;;;;5050318;28;20627;-54
2022/04/02 12:40:25;;;;;;;4.17;3.73;;;;;;;;;;5044611;28;20191;-54
2022/04/02 12:42:52;;;;;;;4.13;3.10;;;;;;;;;;5048838;28;20330;-54
2022/04/02 12:45:23;;;;;;;5.47;3.20;;;;;;;;;;5071148;28;20187;-54
2022/04/02 12:48:00;;;;;;;4.07;3.57;;;;;;;;;;5049479;28;20180;-54
2022/04/02 12:50:28;;;;;;;3.83;3.50;;;;;;;;;;5055718;28;20255;-55
2022/04/02 12:52:54;;;;;;;3.80;2.43;;;;;;;;;;5066606;28;20595;-54
2022/04/02 12:55:24;;;;;;;3.47;3.07;;;;;;;;;;5047326;28;20188;-56
2022/04/02 12:57:58;;;;;;;3.57;3.20;;;;;;;;;;5066059;28;20718;-53
2022/04/02 13:00:28;;;;;;;3.80;3.17;;;;;;;;;;5049932;28;20184;-53
2022/04/02 13:03:05;;;;;;;4.10;3.20;;;;;;;;;;5068195;28;20176;-55
2022/04/02 13:05:50;;;;;;;3.97;3.07;;;;;;;;;;5031521;28;20267;-56
2022/04/02 13:08:19;;;;;;;3.00;2.70;;;;;;;;;;5044536;28;20196;-56
2022/04/02 13:10:50;;;;;;;3.97;3.17;;;;;;;;;;5045871;28;20232;-54
2022/04/02 13:13:17;;;;;;;4.00;3.17;;;;;;;;;;5045448;28;20200;-54
2022/04/02 13:15:54;;;;;;;3.70;2.90;;;;;;;;;;5045062;28;20315;-54
2022/04/02 13:21:08;;;;;;;3.80;3.03;;;;;;;;;;5068994;28;20207;-56
2022/04/02 13:23:54;;;;;;;2.63;2.43;;;;;;;;;;5068406;28;20211;-55
2022/04/02 13:26:30;;;;;;;3.20;2.90;;;;;;;;;;5062923;28;20270;-54
2022/04/02 13:29:11;;;;;;;3.33;2.87;;;;;;;;;;5051723;28;20204;-54
2022/04/02 13:31:42;;;;;;;3.33;3.00;;;;;;;;;;5065500;28;20164;-54
2022/04/02 13:34:17;;;;;;;4.63;3.00;;;;;;;;;;5070223;28;20216;-54
2022/04/02 13:36:58;;;;;;;3.13;2.83;;;;;;;;;;5074168;28;20650;-54
2022/04/02 13:39:26;;;;;;;2.90;2.60;;;;;;;;;;5050070;28;20234;-54
2022/04/02 13:41:53;;;;;;;3.17;2.70;;;;;;;;;;5069732;28;20263;-54
2022/04/02 13:44:20;;;;;;;2.80;2.60;;;;;;;;;;5049682;28;20618;-54
2022/04/02 13:46:52;;;;;;;4.10;3.13;;;;;;;;;;5057943;28;20185;-54
2022/04/02 13:49:39;;;;;;;3.80;2.77;;;;;;;;;;5065828;28;20260;-54
2022/04/02 13:52:08;;;;;;;2.93;2.73;;;;;;;;;;5061843;28;21921;-54
2022/04/02 13:55:06;;;;;;;2.80;2.60;;;;;;;;;;5078961;28;20202;-54
2022/04/02 13:57:36;;;;;;;3.10;2.90;;;;;;;;;;5057432;28;20200;-55
2022/04/02 14:00:07;;;;;;;3.17;2.87;;;;;;;;;;5054832;28;20204;-53
2022/04/02 14:02:34;;;;;;;3.50;2.70;;;;;;;;;;5040864;28;20296;-54
2022/04/02 14:05:04;;;;;;;2.87;2.60;;;;;;;;;;5032302;28;20523;-52
2022/04/02 14:07:31;;;;;;;5.40;3.00;;;;;;;;;;5075826;28;20199;-52
2022/04/02 14:10:02;;;;;;;3.23;2.93;;;;;;;;;;5054018;28;20212;-53
2022/04/02 14:12:31;;;;;;;2.90;2.60;;;;;;;;;;5065508;28;20545;-52
2022/04/02 14:14:59;;;;;;;3.83;2.67;;;;;;;;;;5056827;28;20727;-52
2022/04/02 14:17:30;;;;;;;4.00;2.30;;;;;;;;;;5071978;28;20183;-52
2022/04/02 14:20:06;;;;;;;4.10;2.50;;;;;;;;;;5056166;28;20177;-54
2022/04/02 14:22:37;;;;;;;2.37;2.17;;;;;;;;;;5053658;28;20550;-54
2022/04/02 14:25:14;;;;;;;2.67;2.33;;;;;;;;;;5056272;28;20335;-54
2022/04/02 14:27:58;;;;;;;2.50;2.30;;;;;;;;;;5069798;28;20627;-54
2022/04/02 14:30:43;;;;;;;2.40;2.20;;;;;;;;;;5048965;28;20204;-54
2022/04/02 14:33:18;;;;;;;2.60;2.40;;;;;;;;;;5069843;28;20223;-54
2022/04/02 14:35:47;;;;;;;3.90;2.23;;;;;;;;;;5068505;28;20234;-54
2022/04/02 14:38:32;;;;;;;3.37;2.27;;;;;;;;;;5065807;28;20548;-54
2022/04/02 14:40:59;;;;;;;2.40;2.20;;;;;;;;;;5070653;28;20611;-54
2022/04/02 14:43:25;;;;;;;3.67;2.20;;;;;;;;;;5059797;28;20199;-54
2022/04/02 14:46:10;;;;;;;3.60;2.10;;;;;;;;;;5052839;28;20180;-54
2022/04/02 14:48:37;;;;;;;2.10;1.90;;;;;;;;;;5067498;28;20187;-54
2022/04/02 14:51:10;;;;;;;2.20;2.00;;;;;;;;;;5084819;28;20179;-53
2022/04/02 14:54:04;;;;;;;2.70;2.00;;;;;;;;;;5074853;28;20196;-54
2022/04/02 14:56:37;;;;;;;3.20;1.70;;;;;;;;;;5052630;28;20726;-54
2022/04/02 14:59:14;;;;;;;2.83;2.00;;;;;;;;;;5054397;28;20219;-55
2022/04/02 15:01:59;;;;;;;1.83;1.73;;;;;;;;;;5056376;28;20195;-54
2022/04/02 15:04:43;;;;;;;1.83;1.73;;;;;;;;;;5068634;28;20176;-54
2022/04/02 15:07:18;;;;;;;2.20;1.90;;;;;;;;;;5067113;28;20204;-54